Time;durP1;ratioP1;P1;durP2;ratioP2;P2;SDS_P1;SDS_P2;PMS_P1;PMS_P2;Temp;Humidity;BMP_temperature;BMP_pressure;BME280_temperature;BME280_humidity;BME280_pressure;Samples;Min_cycle;Max_cycle;Signal;HPM_P1;HPM_P2
2022/06/24 00:01:32;;;;;;;6.70;1.48;;;20.70;80.50;;;20.14;96.60;95529.00;5005448;28;20037;-64
2022/06/24 00:03:58;;;;;;;7.95;1.80;;;20.80;80.80;;;20.10;95.94;95513.75;4990172;28;20080;-64
2022/06/24 00:06:27;;;;;;;6.22;1.40;;;20.70;81.00;;;20.04;96.62;95520.94;5001865;28;20520;-64
2022/06/24 00:08:58;;;;;;;4.93;1.70;;;20.60;81.10;;;19.98;98.30;95530.00;4981638;28;20035;-64
2022/06/24 00:11:27;;;;;;;7.35;1.65;;;20.60;81.00;;;19.93;97.09;95530.00;5003290;28;20026;-64
2022/06/24 00:14:08;;;;;;;5.03;1.40;;;20.60;81.00;;;19.91;98.91;95532.09;5004639;28;20512;-64
2022/06/24 00:17:03;;;;;;;;;;;20.60;81.40;;;19.82;99.95;95528.34;4989230;28;20057;-63
2022/06/24 00:19:32;;;;;;;4.22;1.30;;;20.50;81.00;;;19.77;97.84;95528.31;5001014;28;20521;-63
2022/06/24 00:22:04;;;;;;;8.20;2.08;;;20.50;81.70;;;19.75;97.55;95533.13;4989869;28;20410;-64
2022/06/24 00:24:31;;;;;;;4.38;1.25;;;20.40;81.40;;;19.68;98.60;95544.00;5006211;28;20571;-64
2022/06/24 00:26:56;;;;;;;5.32;1.20;;;20.30;81.80;;;19.65;99.04;95539.19;4984301;28;20544;-63
2022/06/24 00:29:26;;;;;;;4.43;1.20;;;20.40;81.60;;;19.61;99.08;95527.44;4987870;28;20034;-64
2022/06/24 00:32:05;;;;;;;3.42;1.00;;;20.20;82.00;;;19.62;100.00;95517.56;4986196;28;20120;-64
2022/06/24 00:34:35;;;;;;;2.35;1.02;;;20.30;81.90;;;19.59;100.00;95516.22;5000428;28;20137;-64
2022/06/24 00:37:27;;;;;;;4.95;1.30;;;20.30;81.90;;;19.57;100.00;95515.69;5006552;28;20791;-64
2022/06/24 00:40:00;;;;;;;9.05;1.20;;;20.20;82.10;;;19.51;99.51;95528.19;5001555;28;20049;-63
2022/06/24 00:42:26;;;;;;;2.78;1.20;;;20.10;81.80;;;19.44;100.00;95530.25;5004802;28;20034;-64
2022/06/24 00:45:19;;;;;;;4.65;1.63;;;20.10;82.40;;;19.44;100.00;95538.25;4987970;28;20092;-64
2022/06/24 00:47:45;;;;;;;3.83;1.35;;;20.10;81.60;;;19.37;100.00;95539.53;5002264;28;20046;-63
2022/06/24 00:50:26;;;;;;;4.57;1.05;;;20.00;81.90;;;19.33;100.00;95552.59;4972045;28;20046;-63
2022/06/24 00:52:53;;;;;;;;;;;20.00;82.20;;;19.27;100.00;95559.78;5005982;28;20034;-63
2022/06/24 00:55:28;;;;;;;3.10;1.10;;;20.00;82.00;;;19.21;100.00;95565.31;4986570;28;20043;-64
2022/06/24 00:57:55;;;;;;;4.53;1.30;;;19.90;82.00;;;19.18;99.62;95576.47;5006102;28;20051;-63
2022/06/24 01:00:24;;;;;;;2.30;1.20;;;19.90;81.70;;;19.20;99.54;95564.50;5004014;28;20046;-64
2022/06/24 01:02:56;;;;;;;4.97;1.23;;;20.00;81.40;;;19.23;99.75;95557.84;5005325;28;20032;-63
2022/06/24 01:05:21;;;;;;;3.60;1.30;;;20.00;81.00;;;19.24;99.68;95564.81;5002219;28;20109;-63
2022/06/24 01:07:47;;;;;;;4.22;1.13;;;20.00;81.10;;;19.24;99.56;95567.47;4965944;28;20030;-63
2022/06/24 01:10:13;;;;;;;5.88;1.20;;;20.10;81.20;;;19.21;99.49;95566.09;5005982;28;20505;-63
2022/06/24 01:12:39;;;;;;;4.03;1.00;;;20.00;80.90;;;19.22;99.40;95565.03;4986908;28;20101;-63
2022/06/24 01:15:05;;;;;;;3.45;1.20;;;20.00;81.10;;;19.21;99.54;95567.97;5010718;28;20408;-63
2022/06/24 01:17:31;;;;;;;3.15;0.90;;;20.10;81.30;;;19.19;99.35;95562.09;5004121;28;20034;-64
2022/06/24 01:19:57;;;;;;;3.22;0.85;;;19.90;81.00;;;19.18;99.77;95565.81;5008223;28;20129;-63
2022/06/24 01:22:24;;;;;;;3.50;1.10;;;19.90;81.20;;;19.16;99.77;95562.59;4990809;28;20025;-64
2022/06/24 01:24:50;;;;;;;3.78;1.00;;;19.90;81.20;;;19.14;99.42;95570.06;5005642;28;20043;-64
2022/06/24 01:27:15;;;;;;;2.97;0.98;;;19.80;81.30;;;19.13;99.43;95568.44;5010728;28;20122;-64
2022/06/24 01:29:42;;;;;;;4.57;0.95;;;19.80;81.40;;;19.10;99.58;95566.31;4978768;28;20470;-64
2022/06/24 01:32:08;;;;;;;3.05;0.90;;;19.90;81.40;;;19.10;99.70;95553.78;4993875;28;20046;-64
2022/06/24 01:34:34;;;;;;;3.25;1.02;;;19.90;81.30;;;19.10;99.92;95563.63;5010114;28;20204;-64
2022/06/24 01:36:59;;;;;;;3.13;1.00;;;19.90;81.10;;;19.08;99.87;95573.75;4986604;28;20039;-64
2022/06/24 01:39:25;;;;;;;4.03;1.02;;;19.80;81.00;;;19.04;100.00;95560.13;4992055;28;20035;-64
2022/06/24 01:41:51;;;;;;;3.28;0.88;;;19.80;81.50;;;19.04;100.00;95564.66;5008965;28;20156;-64
2022/06/24 01:44:17;;;;;;;3.92;0.90;;;19.80;81.50;;;18.97;100.00;95563.00;5008936;28;20552;-64
2022/06/24 01:46:43;;;;;;;2.08;0.98;;;19.60;81.20;;;18.92;100.00;95557.63;5006340;28;20505;-64
2022/06/24 01:49:09;;;;;;;3.30;1.00;;;19.70;81.50;;;18.91;100.00;95556.03;5008623;28;20081;-64
2022/06/24 01:51:35;;;;;;;5.30;1.33;;;19.70;81.40;;;18.90;100.00;95567.75;4989251;28;20109;-64
2022/06/24 01:54:02;;;;;;;3.22;0.93;;;19.60;81.40;;;18.85;100.00;95567.69;5008675;28;20069;-64
2022/06/24 01:56:27;;;;;;;2.42;0.90;;;19.60;81.40;;;18.79;100.00;95562.59;5008371;28;20561;-64
2022/06/24 01:58:53;;;;;;;2.75;0.90;;;19.50;81.90;;;18.79;100.00;95562.59;4992949;28;20041;-63
2022/06/24 02:01:19;;;;;;;3.08;1.02;;;19.60;81.80;;;18.79;100.00;95562.59;5009568;28;20454;-64
2022/06/24 02:03:45;;;;;;;3.17;1.08;;;19.50;81.70;;;18.76;100.00;95558.53;4986343;28;20027;-64
2022/06/24 02:06:11;;;;;;;2.85;0.98;;;19.60;81.60;;;18.75;100.00;95572.94;5008222;28;20437;-64
2022/06/24 02:08:37;;;;;;;4.25;0.80;;;19.50;81.50;;;18.67;100.00;95565.41;5007082;28;20034;-64
2022/06/24 02:13:47;;;;;;;4.03;0.85;;;19.30;81.90;;;18.52;100.00;95563.34;4992028;28;20048;-64
2022/06/24 02:16:13;;;;;;;3.55;1.15;;;19.20;82.10;;;18.47;100.00;95565.19;5009943;28;20033;-63
2022/06/24 02:18:39;;;;;;;3.78;1.20;;;19.10;82.00;;;18.40;100.00;95565.38;5005534;28;20034;-64
2022/06/24 02:21:05;;;;;;;2.95;1.00;;;19.10;82.10;;;18.31;100.00;95573.00;4995279;28;20042;-63
2022/06/24 02:23:31;;;;;;;5.07;1.45;;;19.00;82.30;;;18.24;100.00;95564.41;4976410;28;20076;-64
2022/06/24 02:25:57;;;;;;;1.83;0.90;;;18.90;82.80;;;18.21;100.00;95572.91;5008141;28;20473;-63
2022/06/24 02:28:22;;;;;;;3.42;1.02;;;19.00;82.70;;;18.20;100.00;95567.81;5007977;28;20037;-63
2022/06/24 02:30:50;;;;;;;3.45;1.23;;;19.00;82.90;;;18.16;100.00;95572.03;4992766;28;20409;-63
2022/06/24 02:33:16;;;;;;;2.35;0.85;;;18.90;82.80;;;18.10;100.00;95568.50;4976197;28;20084;-64
2022/06/24 02:35:42;;;;;;;3.05;0.90;;;18.90;83.00;;;18.07;100.00;95569.00;4992595;28;20038;-69
2022/06/24 02:38:07;;;;;;;4.00;1.10;;;18.80;82.90;;;18.08;100.00;95565.28;4983130;28;20034;-64
2022/06/24 02:40:45;;;;;;;2.60;0.90;;;18.80;82.80;;;18.06;100.00;95559.41;5008459;28;20119;-64
2022/06/24 02:43:31;;;;;;;3.22;1.13;;;18.80;83.00;;;18.02;100.00;95560.97;4991136;28;21599;-63
2022/06/24 02:46:07;;;;;;;2.97;0.88;;;18.70;82.90;;;17.97;100.00;95555.59;4985949;28;20030;-64
2022/06/24 02:48:34;;;;;;;2.67;0.80;;;18.70;83.10;;;17.95;100.00;95550.50;5006081;28;20038;-63
2022/06/24 02:51:02;;;;;;;2.80;0.98;;;18.70;83.20;;;17.93;100.00;95557.13;4992916;28;20414;-64
2022/06/24 02:53:29;;;;;;;2.38;0.90;;;18.60;83.20;;;17.92;100.00;95556.34;4992332;28;20033;-63
2022/06/24 02:56:05;;;;;;;4.65;0.95;;;18.60;83.20;;;17.92;100.00;95552.88;5009705;28;20026;-63
2022/06/24 02:58:31;;;;;;;2.33;1.10;;;18.70;83.10;;;17.93;100.00;95554.47;5005724;28;20101;-65
2022/06/24 03:00:58;;;;;;;2.22;1.13;;;18.70;82.90;;;17.91;100.00;95554.72;5001625;28;20031;-64
2022/06/24 03:03:24;;;;;;;3.25;1.00;;;18.70;83.00;;;17.88;100.00;95557.06;5008827;28;20099;-64
2022/06/24 03:05:50;;;;;;;2.80;1.05;;;18.60;83.00;;;17.83;100.00;95557.00;5009194;28;20497;-64
2022/06/24 03:08:17;;;;;;;2.85;0.90;;;18.60;83.50;;;17.79;100.00;95555.91;4989685;28;20068;-65
2022/06/24 03:10:43;;;;;;;3.15;0.95;;;18.60;83.50;;;17.79;100.00;95558.56;5011404;28;20405;-66
2022/06/24 03:13:09;;;;;;;3.20;1.35;;;18.60;83.50;;;17.79;100.00;95566.53;5008203;28;20100;-64
2022/06/24 03:15:34;;;;;;;3.88;1.33;;;18.60;83.40;;;17.79;100.00;95564.69;4988189;28;20057;-64
2022/06/24 03:18:00;;;;;;;2.85;0.93;;;18.60;83.50;;;17.82;100.00;95558.06;5005920;28;20034;-65
2022/06/24 03:20:27;;;;;;;2.83;0.82;;;18.60;83.30;;;17.84;100.00;95566.59;4990577;28;20034;-65
2022/06/24 03:22:52;;;;;;;3.47;1.05;;;18.70;83.00;;;17.85;100.00;95562.88;5007447;28;20041;-64
2022/06/24 03:25:18;;;;;;;5.00;1.23;;;18.70;83.20;;;17.88;100.00;95557.06;4972532;28;20042;-63
2022/06/24 03:27:44;;;;;;;5.15;1.15;;;18.80;82.80;;;17.91;100.00;95553.94;4991623;28;20142;-64
2022/06/24 03:30:10;;;;;;;3.10;0.90;;;18.90;82.70;;;17.97;100.00;95552.94;5009239;28;20497;-64
2022/06/24 03:32:36;;;;;;;3.50;1.10;;;18.90;82.50;;;17.99;100.00;95548.97;4992203;28;20034;-64
2022/06/24 03:35:03;;;;;;;3.28;0.98;;;19.00;82.20;;;18.03;100.00;95550.06;4993342;28;20646;-64
2022/06/24 03:37:29;;;;;;;2.80;0.75;;;19.00;82.00;;;18.06;100.00;95552.22;5005424;28;20038;-63
2022/06/24 03:39:54;;;;;;;3.90;1.10;;;19.00;82.00;;;18.04;100.00;95545.56;4993361;28;20034;-63
2022/06/24 03:42:20;;;;;;;2.92;1.02;;;18.90;81.90;;;18.05;100.00;95547.16;4986302;28;20031;-64
2022/06/24 03:44:46;;;;;;;3.58;1.02;;;18.90;82.00;;;18.04;100.00;95540.22;5008077;28;20122;-63
2022/06/24 03:47:12;;;;;;;2.67;1.10;;;18.90;82.00;;;18.04;100.00;95545.56;5001902;28;20049;-64
2022/06/24 03:49:38;;;;;;;4.00;1.33;;;18.90;81.60;;;18.04;100.00;95546.34;5009702;28;20117;-64
2022/06/24 03:52:04;;;;;;;3.45;1.10;;;19.00;81.50;;;18.05;100.00;95539.97;5006540;28;20473;-63
2022/06/24 03:54:30;;;;;;;6.20;1.27;;;19.00;81.30;;;18.06;100.00;95543.44;4997590;28;20046;-63
2022/06/24 03:56:55;;;;;;;4.53;1.60;;;19.00;81.20;;;18.10;100.00;95541.88;5005216;28;20036;-63
2022/06/24 03:59:21;;;;;;;3.08;1.20;;;19.10;80.90;;;18.16;100.00;95532.91;4990608;28;20026;-63
2022/06/24 04:01:47;;;;;;;3.20;1.17;;;19.20;80.60;;;18.19;100.00;95529.75;5009109;28;20120;-65
2022/06/24 04:04:13;;;;;;;4.93;1.20;;;19.20;80.60;;;18.24;100.00;95523.69;4989087;28;20092;-63
2022/06/24 04:06:38;;;;;;;5.65;1.80;;;19.20;80.40;;;18.26;100.00;95535.69;5006230;28;20595;-64
2022/06/24 04:09:04;;;;;;;4.10;1.33;;;19.30;80.40;;;18.31;100.00;95535.72;4988711;28;20058;-63
2022/06/24 04:11:30;;;;;;;4.45;1.27;;;19.40;80.40;;;18.32;100.00;95544.50;5007383;28;20068;-63
2022/06/24 04:13:55;;;;;;;5.32;1.55;;;19.40;80.40;;;18.34;100.00;95537.09;5005460;28;20584;-63
2022/06/24 04:16:21;;;;;;;3.05;1.20;;;19.40;80.20;;;18.39;100.00;95547.00;5003965;28;20476;-64
2022/06/24 04:18:50;;;;;;;3.65;1.30;;;19.50;80.40;;;18.42;100.00;95541.16;5006848;28;20374;-63
2022/06/24 04:21:16;;;;;;;3.65;1.23;;;19.50;80.00;;;18.42;100.00;95541.16;5019796;28;20102;-63
2022/06/24 04:23:43;;;;;;;3.05;0.90;;;19.50;80.20;;;18.45;100.00;95551.31;4987330;28;20034;-63
2022/06/24 04:26:09;;;;;;;3.45;1.10;;;19.50;80.10;;;18.45;100.00;95549.44;5006184;28;20052;-64
2022/06/24 04:28:35;;;;;;;3.38;1.00;;;19.50;79.70;;;18.47;100.00;95549.19;4990066;28;20034;-63
2022/06/24 04:31:01;;;;;;;4.78;1.38;;;19.50;79.50;;;18.47;100.00;95560.66;5006464;28;20642;-63
2022/06/24 04:33:26;;;;;;;4.78;1.30;;;19.50;79.30;;;18.49;100.00;95555.06;4988777;28;20033;-63
2022/06/24 04:35:52;;;;;;;4.82;1.30;;;19.50;79.20;;;18.54;100.00;95563.09;4980717;28;20069;-64
2022/06/24 04:38:18;;;;;;;4.22;1.45;;;19.60;79.50;;;18.56;100.00;95564.50;4972798;28;20663;-63
2022/06/24 04:40:43;;;;;;;4.47;1.08;;;19.60;79.10;;;18.60;100.00;95567.44;4990604;28;20038;-63
2022/06/24 04:43:09;;;;;;;4.13;1.30;;;19.70;78.70;;;18.64;99.93;95560.59;4994110;28;20058;-63
2022/06/24 04:45:36;;;;;;;4.30;1.10;;;19.80;78.50;;;18.68;100.00;95561.69;4997552;28;20080;-64
2022/06/24 04:48:01;;;;;;;2.72;1.00;;;19.90;78.40;;;18.73;99.37;95556.41;4996887;28;20069;-63
2022/06/24 04:50:27;;;;;;;2.85;1.20;;;19.90;78.50;;;18.78;99.37;95566.28;5006087;28;20435;-64
2022/06/24 04:52:53;;;;;;;4.53;1.00;;;20.00;78.40;;;18.82;100.00;95573.53;4989478;28;20087;-63
2022/06/24 04:55:19;;;;;;;2.55;1.05;;;20.00;78.10;;;18.86;100.00;95574.66;5002695;28;20049;-63
2022/06/24 04:57:45;;;;;;;4.75;1.05;;;20.10;77.90;;;18.91;98.88;95566.69;4968494;28;20030;-64
2022/06/24 05:00:12;;;;;;;5.70;1.13;;;20.10;77.70;;;18.96;99.44;95558.72;4989380;28;20030;-66
2022/06/24 05:02:38;;;;;;;3.58;1.10;;;20.20;78.00;;;19.02;99.35;95564.91;5007169;28;20041;-64
2022/06/24 05:05:05;;;;;;;4.63;1.25;;;20.30;77.60;;;19.08;99.12;95557.75;4980391;28;20041;-65
2022/06/24 05:07:31;;;;;;;3.58;1.33;;;20.40;77.80;;;19.18;99.97;95557.81;4986371;28;20057;-64
2022/06/24 05:09:56;;;;;;;8.57;1.45;;;20.50;77.80;;;19.26;98.75;95562.69;4996740;28;20113;-64
2022/06/24 05:12:22;;;;;;;5.43;1.23;;;20.60;77.10;;;19.33;99.81;95560.59;5003257;28;20485;-65
2022/06/24 05:14:48;;;;;;;2.65;0.95;;;20.70;77.10;;;19.43;98.00;95573.19;5000491;28;20061;-65
2022/06/24 05:17:14;;;;;;;5.32;1.38;;;20.80;76.60;;;19.49;97.85;95572.97;5002052;28;20072;-64
2022/06/24 05:19:40;;;;;;;6.57;1.58;;;20.90;76.00;;;19.57;98.73;95564.50;5002767;28;20119;-61
2022/06/24 05:22:05;;;;;;;5.68;1.20;;;21.00;76.10;;;19.65;97.62;95571.22;4996517;28;20041;-65
2022/06/24 05:24:31;;;;;;;5.93;1.48;;;21.10;75.40;;;19.70;96.78;95565.13;5001733;28;20492;-65
2022/06/24 05:26:57;;;;;;;5.75;1.35;;;21.00;74.80;;;19.74;95.18;95563.53;5003147;28;20030;-65
2022/06/24 05:29:23;;;;;;;6.68;1.52;;;21.10;74.40;;;19.79;96.37;95559.03;4965893;28;20068;-64
2022/06/24 05:31:49;;;;;;;4.18;1.20;;;21.10;75.50;;;19.83;96.00;95567.31;5001264;28;20288;-65
2022/06/24 05:34:14;;;;;;;3.13;0.93;;;21.10;74.80;;;19.84;95.47;95583.06;5001706;28;20634;-65
2022/06/24 05:36:41;;;;;;;6.57;1.15;;;21.10;74.80;;;19.86;95.24;95580.94;4997766;28;20034;-62
2022/06/24 05:39:06;;;;;;;3.60;1.13;;;21.10;75.10;;;19.84;94.37;95580.38;5002238;28;20037;-63
2022/06/24 05:41:33;;;;;;;5.78;1.30;;;21.00;74.20;;;19.83;94.53;95581.47;5003325;28;20092;-63
2022/06/24 05:44:00;;;;;;;4.50;1.40;;;21.00;74.80;;;19.86;94.69;95577.47;5003880;28;20096;-65
2022/06/24 05:46:26;;;;;;;5.82;1.40;;;21.10;75.30;;;19.88;94.83;95570.00;5003923;28;20128;-64
2022/06/24 05:48:52;;;;;;;4.25;1.08;;;21.20;75.40;;;19.93;94.27;95562.03;4999250;28;20494;-64
2022/06/24 05:51:17;;;;;;;4.85;1.13;;;21.20;75.10;;;19.95;93.83;95569.78;4997692;28;20180;-65
2022/06/24 05:56:29;;;;;;;6.43;1.45;;;21.10;74.20;;;19.94;93.42;95555.63;4988817;28;20547;-65
2022/06/24 05:58:55;;;;;;;4.30;1.35;;;21.20;73.60;;;19.99;93.41;95555.63;5001830;28;20065;-65
2022/06/24 06:01:21;;;;;;;2.67;1.02;;;21.30;73.80;;;20.03;93.09;95559.38;5005937;28;20065;-64
2022/06/24 06:03:47;;;;;;;3.67;1.17;;;21.40;73.80;;;20.09;93.13;95555.66;4998541;28;20030;-64
2022/06/24 06:06:12;;;;;;;4.13;0.95;;;21.50;73.80;;;20.16;93.89;95550.91;5006817;28;20038;-65
2022/06/24 06:08:39;;;;;;;3.67;1.33;;;21.60;73.50;;;20.23;93.93;95553.31;4991077;28;20123;-65
2022/06/24 06:11:20;;;;;;;3.92;1.25;;;21.70;73.30;;;20.33;92.71;95544.53;4989993;28;20117;-64
2022/06/24 06:13:46;;;;;;;;;;;21.80;72.90;;;20.35;89.70;95537.84;5002643;28;20401;-65
2022/06/24 06:16:12;;;;;;;2.33;1.02;;;21.90;71.10;;;20.38;92.68;95544.56;5006310;28;20000;-64
2022/06/24 06:18:38;;;;;;;7.22;1.42;;;21.80;71.50;;;20.47;91.33;95540.31;5007188;28;20113;-66
2022/06/24 06:21:08;;;;;;;3.25;1.13;;;22.00;70.70;;;20.53;91.39;95544.59;4988630;28;20085;-66
2022/06/24 06:23:35;;;;;;;5.28;1.42;;;22.10;71.20;;;20.64;91.38;95540.88;5000293;28;20064;-65
2022/06/24 06:26:02;;;;;;;6.53;1.42;;;22.30;71.00;;;20.73;90.92;95544.63;4981363;28;20084;-64
2022/06/24 06:28:28;;;;;;;4.47;1.30;;;22.40;71.40;;;20.85;91.54;95551.59;4977970;28;20129;-64
2022/06/24 06:30:53;;;;;;;5.68;1.40;;;22.50;71.80;;;20.94;90.27;95547.31;4991296;28;20033;-65
2022/06/24 06:33:20;;;;;;;2.75;1.15;;;22.50;70.10;;;21.00;90.13;95543.56;5005559;28;20409;-64
2022/06/24 06:35:45;;;;;;;5.20;1.25;;;22.60;70.80;;;21.07;90.28;95547.59;5003589;28;20045;-66
2022/06/24 06:38:11;;;;;;;4.07;1.13;;;22.70;70.20;;;21.17;89.86;95559.34;5002559;28;20034;-64
2022/06/24 06:40:37;;;;;;;6.20;1.30;;;22.80;70.00;;;21.28;89.32;95564.44;4989807;28;20108;-63
2022/06/24 06:43:05;;;;;;;5.40;1.20;;;23.10;69.50;;;21.40;89.04;95554.25;5004366;28;20144;-64
2022/06/24 06:45:40;;;;;;;4.07;1.15;;;23.10;68.80;;;21.49;87.55;95551.00;4987509;28;20077;-65
2022/06/24 06:48:07;;;;;;;5.05;1.35;;;23.20;68.80;;;21.50;86.87;95563.31;5003253;28;20061;-64
2022/06/24 06:50:33;;;;;;;4.57;1.17;;;23.10;67.50;;;21.52;86.56;95555.84;5006460;28;20033;-64
2022/06/24 06:52:58;;;;;;;2.53;0.85;;;23.00;67.80;;;21.53;85.36;95565.47;4987043;28;20050;-64
2022/06/24 06:55:24;;;;;;;4.18;1.23;;;22.90;67.50;;;21.51;85.29;95557.72;5000536;28;20042;-63
2022/06/24 06:57:51;;;;;;;3.83;1.50;;;22.90;67.80;;;21.54;84.99;95553.69;5007357;28;20060;-64
2022/06/24 07:00:17;;;;;;;3.60;1.40;;;23.40;66.60;;;21.64;84.23;95564.38;5006717;28;20045;-64
2022/06/24 07:02:43;;;;;;;4.38;1.60;;;23.70;65.30;;;21.80;85.11;95567.81;5003000;28;20026;-64
2022/06/24 07:05:09;;;;;;;8.38;1.40;;;24.00;65.30;;;21.97;84.03;95562.94;5004222;28;20084;-65
2022/06/24 07:07:34;;;;;;;5.18;1.77;;;24.20;63.80;;;22.15;84.17;95556.19;4992717;28;20501;-64
2022/06/24 07:10:00;;;;;;;5.85;1.23;;;24.60;64.10;;;22.33;84.06;95546.72;5004442;28;20041;-64
2022/06/24 07:12:26;;;;;;;3.33;1.17;;;24.70;63.60;;;22.53;83.36;95539.38;4989117;28;20121;-65
2022/06/24 07:14:52;;;;;;;3.47;0.95;;;25.20;61.80;;;22.73;80.47;95533.06;4991683;28;20034;-64
2022/06/24 07:17:18;;;;;;;2.42;0.77;;;25.50;57.20;;;22.95;78.91;95530.00;5008381;28;20044;-65
2022/06/24 07:19:44;;;;;;;5.60;1.02;;;25.80;56.60;;;23.20;76.48;95520.91;5006993;28;20131;-66
2022/06/24 07:22:10;;;;;;;3.88;0.80;;;26.20;53.50;;;23.43;75.22;95520.16;5002517;28;20113;-65
2022/06/24 07:24:35;;;;;;;2.17;0.82;;;26.50;54.10;;;23.66;74.54;95523.97;5003837;28;20112;-65
2022/06/24 07:27:06;;;;;;;5.07;0.82;;;26.40;54.10;;;23.77;72.82;95513.94;5008422;28;20069;-65
2022/06/24 07:29:35;;;;;;;4.80;1.10;;;26.10;52.90;;;23.86;70.68;95516.78;5005983;28;20081;-65
2022/06/24 07:32:02;;;;;;;3.63;1.27;;;26.10;51.30;;;23.98;70.57;95514.47;5007234;28;20084;-65
2022/06/24 07:34:30;;;;;;;10.23;1.35;;;26.30;52.90;;;24.12;69.81;95505.41;5006102;28;20053;-65
2022/06/24 07:36:59;;;;;;;5.65;1.50;;;26.40;52.30;;;24.28;69.62;95507.91;5005847;28;20037;-66
2022/06/24 07:39:24;;;;;;;5.97;1.27;;;26.80;52.40;;;24.45;70.12;95512.81;5004445;28;20041;-66
2022/06/24 07:41:50;;;;;;;2.90;1.10;;;26.80;52.40;;;24.54;69.22;95527.19;5006106;28;20521;-67
2022/06/24 07:44:16;;;;;;;3.80;1.30;;;26.60;52.50;;;24.54;68.08;95516.44;4970345;28;20121;-66
2022/06/24 07:46:42;;;;;;;5.28;0.90;;;26.30;52.60;;;24.49;67.10;95520.00;5006805;28;20033;-65
2022/06/24 07:49:08;;;;;;;5.05;1.27;;;26.00;52.60;;;24.40;67.05;95519.84;5002613;28;20034;-65
2022/06/24 07:51:33;;;;;;;3.33;1.33;;;26.10;52.70;;;24.43;67.20;95524.63;5005603;28;20405;-64
2022/06/24 07:53:59;;;;;;;3.42;0.93;;;26.60;52.90;;;24.61;68.15;95523.03;4990629;28;20062;-67
2022/06/24 07:59:09;;;;;;;6.03;0.98;;;27.20;52.80;;;24.83;68.07;95519.75;5001007;28;20054;-64
2022/06/24 08:01:35;;;;;;;4.55;1.60;;;27.00;53.60;;;24.85;68.18;95512.19;5004877;28;20045;-67
2022/06/24 08:04:07;;;;;;;5.63;1.02;;;26.90;53.70;;;24.87;68.19;95510.00;5006880;28;20045;-65
2022/06/24 08:06:37;;;;;;;3.60;1.33;;;26.70;53.90;;;24.88;67.83;95511.59;5005756;28;20041;-65
2022/06/24 08:09:03;;;;;;;4.25;1.42;;;26.60;54.90;;;24.83;68.17;95508.19;5005011;28;20059;-64
2022/06/24 08:11:29;;;;;;;5.25;1.50;;;26.40;55.10;;;24.73;67.55;95498.41;4987261;28;20045;-65
2022/06/24 08:13:55;;;;;;;9.25;1.58;;;26.20;54.30;;;24.63;67.67;95503.91;5004242;28;20374;-65
2022/06/24 08:16:22;;;;;;;4.95;1.50;;;26.10;56.00;;;24.52;68.28;95503.28;4990225;28;20149;-65
2022/06/24 08:18:49;;;;;;;5.20;1.65;;;25.80;56.50;;;24.38;68.46;95505.88;5003212;28;20034;-65
2022/06/24 08:21:15;;;;;;;6.60;1.58;;;25.60;56.60;;;24.20;68.26;95506.66;4989668;28;20057;-67
2022/06/24 08:23:40;;;;;;;5.57;1.38;;;25.30;56.80;;;24.01;68.98;95503.16;5006747;28;20442;-65
2022/06/24 08:26:06;;;;;;;6.47;1.23;;;25.00;58.40;;;23.91;69.50;95497.91;5007125;28;20426;-65
2022/06/24 08:28:32;;;;;;;4.82;1.35;;;25.10;58.70;;;23.83;70.10;95502.84;4989991;28;20046;-66
2022/06/24 08:30:57;;;;;;;7.95;1.60;;;25.10;58.90;;;23.78;70.21;95497.53;5002451;28;20066;-65
2022/06/24 08:33:23;;;;;;;5.43;1.50;;;25.10;60.20;;;23.77;71.63;95503.19;5000133;28;20030;-65
2022/06/24 08:35:49;;;;;;;8.57;1.45;;;25.20;61.40;;;23.73;73.56;95502.94;5005958;28;20042;-65
2022/06/24 08:38:17;;;;;;;5.55;1.60;;;25.30;62.10;;;23.71;73.62;95494.38;5005610;28;20160;-65
2022/06/24 08:40:46;;;;;;;6.50;1.92;;;25.20;61.30;;;23.72;74.15;95495.16;5004578;28;20034;-65
2022/06/24 08:43:11;;;;;;;4.18;1.50;;;25.30;60.70;;;23.75;72.15;95484.66;5002059;28;20035;-67
2022/06/24 08:45:37;;;;;;;7.75;1.77;;;25.30;58.40;;;23.76;72.55;95475.53;4988048;28;20038;-65
2022/06/24 08:48:07;;;;;;;2.10;1.27;;;25.50;60.00;;;23.79;73.78;95474.94;4978106;28;20041;-65
2022/06/24 08:50:33;;;;;;;3.90;1.23;;;25.50;60.40;;;23.84;73.14;95476.78;5001392;28;20540;-65
2022/06/24 08:52:59;;;;;;;4.93;1.50;;;25.60;59.10;;;23.90;72.42;95480.19;4970793;28;20061;-66
2022/06/24 08:55:24;;;;;;;5.75;1.60;;;25.70;58.40;;;23.96;70.77;95473.66;5004184;28;20038;-65
2022/06/24 08:57:50;;;;;;;6.25;1.48;;;25.70;57.00;;;24.08;71.34;95474.03;5002761;28;20033;-65
2022/06/24 09:00:18;;;;;;;6.43;1.77;;;26.00;57.40;;;24.18;71.26;95465.81;4986872;28;20132;-65
2022/06/24 09:02:44;;;;;;;8.02;1.75;;;26.20;57.20;;;24.33;70.75;95471.03;4989168;28;20030;-64
2022/06/24 09:05:11;;;;;;;4.38;1.58;;;26.30;56.50;;;24.43;70.48;95475.44;4969343;28;20046;-65
2022/06/24 09:07:37;;;;;;;7.07;1.38;;;26.30;56.60;;;24.50;70.10;95477.78;4972765;28;20478;-64
2022/06/24 09:10:10;;;;;;;6.07;1.58;;;26.20;55.70;;;24.50;68.15;95480.47;5004605;28;20072;-65
2022/06/24 09:12:46;;;;;;;6.60;1.63;;;26.20;56.00;;;24.47;67.32;95473.78;4972325;28;20107;-65
2022/06/24 09:15:13;;;;;;;7.45;1.60;;;26.00;55.40;;;24.45;68.32;95472.50;4986949;28;20035;-64
2022/06/24 09:17:39;;;;;;;6.05;1.70;;;26.10;55.30;;;24.47;67.76;95470.31;4988056;28;20345;-65
2022/06/24 09:20:43;;;;;;;5.85;1.73;;;26.20;55.50;;;24.53;67.16;95471.81;4987035;28;20058;-65
2022/06/24 09:23:12;;;;;;;6.80;1.90;;;26.30;55.20;;;24.66;68.31;95476.44;5006047;28;20571;-63
2022/06/24 09:25:48;;;;;;;5.18;1.60;;;26.70;55.00;;;24.88;68.74;95473.94;5005909;28;20038;-65
2022/06/24 09:28:24;;;;;;;7.55;1.70;;;27.20;55.20;;;24.99;68.95;95480.78;5001583;28;20038;-64
2022/06/24 09:30:50;;;;;;;4.65;1.25;;;27.00;55.70;;;25.10;69.64;95464.44;5003976;28;20041;-64
2022/06/24 09:33:18;;;;;;;4.75;1.50;;;27.30;56.10;;;25.23;68.96;95469.06;4972436;28;20034;-64
2022/06/24 09:35:43;;;;;;;6.13;1.67;;;27.40;55.00;;;25.39;68.99;95462.31;5007569;28;20088;-65
2022/06/24 09:38:09;;;;;;;8.52;1.83;;;27.80;53.70;;;25.57;68.10;95472.19;5007144;28;20042;-64
2022/06/24 09:40:35;;;;;;;4.97;1.50;;;28.10;52.80;;;25.78;67.28;95466.41;5007609;28;20030;-66
2022/06/24 09:43:03;;;;;;;6.00;1.50;;;28.30;51.90;;;25.97;66.80;95456.31;5005392;28;20031;-65
2022/06/24 09:45:49;;;;;;;6.32;1.90;;;28.60;52.50;;;26.21;65.12;95448.78;4991350;28;20049;-65
2022/06/24 09:48:28;;;;;;;8.15;1.98;;;28.60;51.40;;;26.35;64.41;95445.28;4988918;28;20034;-66
2022/06/24 09:51:07;;;;;;;7.72;1.70;;;28.60;50.70;;;26.59;63.36;95445.78;5005132;28;20030;-67
2022/06/24 09:53:40;;;;;;;5.55;1.60;;;29.30;49.40;;;27.09;66.55;95435.66;5007486;28;20131;-64
2022/06/24 09:56:08;;;;;;;4.97;1.38;;;30.70;50.20;;;27.50;63.99;95431.06;5005007;28;20074;-66
2022/06/24 09:58:35;;;;;;;6.15;1.67;;;30.60;46.60;;;27.81;62.68;95426.41;5003521;28;20049;-65
2022/06/24 10:01:01;;;;;;;5.50;1.52;;;31.30;45.50;;;28.11;63.23;95418.53;4990300;28;20514;-66
2022/06/24 10:03:27;;;;;;;4.18;1.23;;;31.30;46.90;;;28.31;61.85;95404.41;4988107;28;20146;-65
2022/06/24 10:05:53;;;;;;;6.47;1.63;;;31.30;45.70;;;28.50;60.98;95404.06;5002320;28;20436;-66
2022/06/24 10:08:23;;;;;;;3.80;1.40;;;31.30;45.70;;;28.64;60.29;95410.91;4988149;28;20045;-65
2022/06/24 10:10:54;;;;;;;5.60;1.90;;;31.50;46.40;;;28.90;59.06;95407.38;5007053;28;20049;-65
2022/06/24 10:13:28;;;;;;;6.03;1.63;;;32.20;43.10;;;29.19;56.54;95404.72;4988799;28;20058;-65
2022/06/24 10:15:57;;;;;;;4.85;1.58;;;32.20;43.30;;;29.42;57.62;95401.78;4984790;28;20168;-65
2022/06/24 10:18:27;;;;;;;6.70;1.75;;;32.60;43.00;;;29.74;57.06;95401.19;4990197;28;20035;-64
2022/06/24 10:20:56;;;;;;;5.18;1.85;;;32.90;42.90;;;29.90;55.39;95392.47;5007894;28;20041;-65
2022/06/24 10:23:53;;;;;;;5.60;1.73;;;32.80;42.30;;;30.21;54.55;95389.41;5005659;28;20054;-64
2022/06/24 10:26:30;;;;;;;6.63;1.60;;;33.40;42.00;;;30.31;50.42;95389.78;5007031;28;20034;-63
2022/06/24 10:28:59;;;;;;;4.35;1.10;;;33.00;39.10;;;30.32;50.75;95383.22;4987674;28;20096;-64